Time;durP1;ratioP1;P1;durP2;ratioP2;P2;SDS_P1;SDS_P2;PMS_P1;PMS_P2;Temp;Humidity;BMP_temperature;BMP_pressure;BME280_temperature;BME280_humidity;BME280_pressure;Samples;Min_cycle;Max_cycle;Signal;HPM_P1;HPM_P2
2023/06/27 00:03:51;;;;;;;1.58;0.98;;;15.00;99.90;;;;;;4900166;29;20048;-96
2023/06/27 00:06:25;;;;;;;2.38;1.08;;;15.00;99.90;;;;;;4885361;29;20051;-96
2023/06/27 00:09:08;;;;;;;3.55;1.20;;;14.30;99.90;;;;;;4915855;29;20047;-96
2023/06/27 00:12:28;;;;;;;;;;;;;;;;;;;;;
2023/06/27 00:15:50;;;;;;;;;;;;;;;;;;;;;
2023/06/27 00:21:56;;;;;;;3.30;1.17;;;15.10;99.90;;;;;;4906034;29;20071;-96
2023/06/27 00:25:02;;;;;;;3.10;1.15;;;15.20;99.90;;;;;;4893900;29;20051;-96
2023/06/27 00:28:08;;;;;;;3.15;1.42;;;15.20;99.90;;;;;;4907635;29;20376;-96
2023/06/27 00:31:10;;;;;;;2.03;1.08;;;15.20;99.90;;;;;;4898486;29;20055;-96
2023/06/27 00:33:48;;;;;;;2.28;1.00;;;15.20;99.90;;;;;;4887417;29;20055;-95
2023/06/27 00:36:17;;;;;;;;;;;15.30;99.90;;;;;;4888835;29;20044;-96
2023/06/27 00:38:55;;;;;;;3.85;1.10;;;15.00;99.90;;;;;;4910031;29;19973;-96
2023/06/27 00:41:36;;;;;;;2.97;1.10;;;15.30;99.90;;;;;;4925690;29;20087;-96
2023/06/27 00:44:11;;;;;;;2.70;1.03;;;15.10;99.90;;;;;;4913927;29;20465;-96
2023/06/27 00:47:38;;;;;;;;;;;;;;;;;;;;;
2023/06/27 00:53:45;;;;;;;1.55;1.00;;;15.30;99.90;;;;;;4913716;29;20350;-96
2023/06/27 00:56:30;;;;;;;3.85;1.00;;;15.30;99.90;;;;;;4893286;29;20250;-96
2023/06/27 00:59:33;;;;;;;3.22;0.98;;;15.30;99.90;;;;;;4911713;29;20059;-96
2023/06/27 01:02:03;;;;;;;2.78;1.02;;;15.30;99.90;;;;;;4906874;29;20048;-96
2023/06/27 01:04:56;;;;;;;3.22;1.13;;;15.30;99.90;;;;;;4892252;29;20068;-96
2023/06/27 01:08:20;;;;;;;2.45;1.08;;;15.30;99.90;;;;;;4924123;29;20050;-95
2023/06/27 01:11:44;;;;;;;2.38;0.82;;;15.00;99.90;;;;;;4928468;29;20063;-95
2023/06/27 01:14:42;;;;;;;2.50;0.95;;;15.10;99.90;;;;;;4882294;29;20449;-95
2023/06/27 01:17:37;;;;;;;3.22;1.35;;;15.90;99.90;;;;;;4899576;29;20057;-96
2023/06/27 01:24:07;;;;;;;3.08;1.20;;;15.20;99.90;;;;;;4920309;29;20055;-96
2023/06/27 01:26:34;;;;;;;3.67;1.20;;;15.20;99.90;;;;;;4918049;29;20048;-95
2023/06/27 01:30:15;;;;;;;2.53;1.33;;;15.10;99.90;;;;;;4909116;29;20047;-95
2023/06/27 01:33:14;;;;;;;1.35;0.90;;;15.20;99.90;;;;;;4923087;29;20067;-96
2023/06/27 01:36:30;;;;;;;1.98;1.13;;;14.70;99.90;;;;;;4904922;29;20139;-96
2023/06/27 01:39:22;;;;;;;2.13;0.85;;;15.10;99.90;;;;;;4905926;29;20036;-96
2023/06/27 01:45:39;;;;;;;2.55;1.40;;;15.10;99.90;;;;;;4841641;29;20541;-96
2023/06/27 01:48:23;;;;;;;1.85;1.00;;;15.10;99.90;;;;;;4900263;29;20052;-96
2023/06/27 01:54:16;;;;;;;1.98;1.00;;;15.00;99.90;;;;;;4901560;29;20048;-95
2023/06/27 01:56:47;;;;;;;2.45;1.08;;;15.00;99.90;;;;;;4904008;29;20135;-96
2023/06/27 01:59:23;;;;;;;3.45;1.17;;;15.10;99.90;;;;;;4877582;29;20455;-95
2023/06/27 02:02:35;;;;;;;2.28;1.02;;;15.00;99.90;;;;;;4887559;29;20052;-96
2023/06/27 02:05:15;;;;;;;2.00;1.00;;;15.30;99.90;;;;;;4892726;29;20044;-96
2023/06/27 02:08:25;;;;;;;;;;;;;;;;;;;;;
2023/06/27 02:15:01;;;;;;;3.85;1.20;;;15.10;99.90;;;;;;4890103;29;20377;-96
2023/06/27 02:18:02;;;;;;;3.55;1.00;;;15.40;99.90;;;;;;4930434;29;20055;-96
2023/06/27 02:20:44;;;;;;;2.83;1.10;;;15.00;99.90;;;;;;4904788;29;20079;-96
2023/06/27 02:23:52;;;;;;;2.45;1.13;;;15.30;99.90;;;;;;4907743;29;20474;-96
2023/06/27 02:26:46;;;;;;;3.22;0.95;;;15.10;99.90;;;;;;4927828;29;20138;-96
2023/06/27 02:29:12;;;;;;;3.63;1.13;;;14.60;99.90;;;;;;4877051;29;20052;-96
2023/06/27 02:31:40;;;;;;;2.80;1.27;;;15.10;99.90;;;;;;4899563;29;20052;-96
2023/06/27 02:34:36;;;;;;;;;;;;;;;;;;;;;
2023/06/27 02:37:46;;;;;;;2.28;1.00;;;14.70;99.90;;;;;;4917962;29;20059;-96
2023/06/27 02:40:15;;;;;;;3.88;1.17;;;15.30;99.90;;;;;;4901793;29;20058;-95
2023/06/27 02:43:00;;;;;;;3.50;1.00;;;15.00;99.90;;;;;;4911823;29;20078;-95
2023/06/27 02:45:45;;;;;;;;;;;;;;;;;;;;;
2023/06/27 02:48:35;;;;;;;1.88;1.17;;;15.00;99.90;;;;;;4881539;29;20100;-96
2023/06/27 02:51:29;;;;;;;3.38;1.23;;;15.00;99.90;;;;;;4900101;29;20044;-96
2023/06/27 02:54:12;;;;;;;3.63;1.35;;;15.60;99.90;;;;;;4878099;29;20073;-95
2023/06/27 02:59:53;;;;;;;2.22;1.02;;;15.00;99.90;;;;;;4883505;29;20104;-96
2023/06/27 03:03:01;;;;;;;3.08;1.23;;;14.90;99.90;;;;;;4905208;29;20100;-96
2023/06/27 03:06:19;;;;;;;2.58;0.93;;;14.60;99.90;;;;;;4924727;29;20104;-96
2023/06/27 03:09:40;;;;;;;;;;;;;;;;;;;;;
2023/06/27 03:12:37;;;;;;;3.25;1.10;;;15.00;99.90;;;;;;4906345;29;20064;-96
2023/06/27 03:15:27;;;;;;;6.47;1.90;;;14.90;99.90;;;;;;4916032;29;20052;-96
2023/06/27 03:18:16;;;;;;;3.63;1.38;;;14.90;99.90;;;;;;4870559;29;20049;-96
2023/06/27 03:20:59;;;;;;;2.85;1.15;;;14.90;99.90;;;;;;4916941;29;20063;-96
2023/06/27 03:23:36;;;;;;;2.25;1.05;;;14.90;99.90;;;;;;4908294;29;20499;-96
2023/06/27 03:26:39;;;;;;;2.83;1.55;;;14.90;99.90;;;;;;4925383;29;20083;-96
2023/06/27 03:29:08;;;;;;;3.67;1.35;;;15.20;99.90;;;;;;4898231;29;20289;-96
2023/06/27 03:34:50;;;;;;;2.05;1.05;;;14.30;99.90;;;;;;4926596;29;20080;-96
2023/06/27 03:37:19;;;;;;;3.30;1.13;;;14.90;99.90;;;;;;4898827;29;20096;-96
2023/06/27 03:40:00;;;;;;;3.63;1.17;;;14.90;99.90;;;;;;4903834;29;20077;-96
2023/06/27 03:42:32;;;;;;;3.28;1.10;;;15.00;99.90;;;;;;4919045;29;20054;-96
2023/06/27 03:45:36;;;;;;;2.55;0.95;;;15.00;99.90;;;;;;4888872;29;20134;-96
2023/06/27 03:48:47;;;;;;;2.90;1.20;;;15.00;99.90;;;;;;4916977;29;20036;-96
2023/06/27 03:51:30;;;;;;;3.13;0.90;;;15.10;99.90;;;;;;4917994;29;20056;-96
2023/06/27 03:54:27;;;;;;;3.55;1.13;;;14.80;99.90;;;;;;4896444;29;20116;-96
2023/06/27 03:57:20;;;;;;;2.40;0.90;;;15.10;99.90;;;;;;4908442;29;20059;-96
2023/06/27 04:00:03;;;;;;;1.90;1.00;;;15.20;99.90;;;;;;4906726;29;20048;-96
2023/06/27 04:02:57;;;;;;;3.45;1.08;;;15.20;99.90;;;;;;4886677;29;20055;-96
2023/06/27 04:06:25;;;;;;;3.03;1.00;;;15.10;99.90;;;;;;4915847;29;20056;-96
2023/06/27 04:09:15;;;;;;;2.28;1.08;;;15.30;99.90;;;;;;4912766;29;20036;-95
2023/06/27 04:15:06;;;;;;;2.05;1.00;;;15.40;99.90;;;;;;4923150;29;20044;-95
2023/06/27 04:17:40;;;;;;;1.98;0.80;;;15.50;99.90;;;;;;4904114;29;20059;-96
2023/06/27 04:21:12;;;;;;;3.30;1.20;;;15.50;99.90;;;;;;4886425;29;20048;-96
2023/06/27 04:24:53;;;;;;;;;;;;;;;;;;;;;
2023/06/27 04:28:22;;;;;;;3.00;0.80;;;15.60;99.90;;;;;;4838854;29;20050;-96
2023/06/27 04:31:35;;;;;;;4.72;1.02;;;15.70;99.90;;;;;;4874317;29;20074;-96
2023/06/27 04:34:46;;;;;;;4.55;1.02;;;15.70;99.90;;;;;;4854944;29;20084;-96
2023/06/27 04:37:43;;;;;;;1.75;0.93;;;;;;;;;;4801156;29;20058;-96
2023/06/27 04:40:31;;;;;;;4.60;1.13;;;15.70;99.90;;;;;;4791485;29;20049;-95
2023/06/27 04:43:04;;;;;;;4.25;1.10;;;;;;;;;;4857534;29;20469;-96
2023/06/27 04:53:24;;;;;;;4.60;1.00;;;17.00;99.90;;;;;;4795223;29;20080;-96
2023/06/27 04:56:21;;;;;;;2.40;1.00;;;16.00;99.90;;;;;;4773177;29;20058;-96
2023/06/27 04:59:07;;;;;;;2.30;0.70;;;16.50;99.90;;;;;;4880241;29;20045;-96
2023/06/27 05:02:33;;;;;;;3.63;0.90;;;16.40;99.90;;;;;;4890724;29;20045;-96
2023/06/27 05:05:14;;;;;;;3.05;1.00;;;15.80;99.90;;;;;;4874739;29;20489;-95
2023/06/27 05:08:31;;;;;;;2.88;0.80;;;16.20;99.90;;;;;;5019696;23;20082;-96
2023/06/27 05:11:19;;;;;;;;;;;;;;;;;;;;;
2023/06/27 05:14:04;;;;;;;2.60;0.90;;;15.10;99.90;;;;;;4919086;29;20084;-96
2023/06/27 05:45:27;;;;;;;3.72;1.13;;;17.00;99.90;;;;;;753441;23;20320;-95
2023/06/27 05:47:57;;;;;;;3.03;1.42;;;17.10;99.90;;;;;;4912548;29;20064;-96
2023/06/27 05:50:23;;;;;;;2.17;0.80;;;17.10;99.90;;;;;;4929146;29;20053;-96
2023/06/27 05:52:52;;;;;;;3.80;1.08;;;17.20;99.90;;;;;;4910257;29;20155;-96
2023/06/27 06:01:45;;;;;;;2.83;1.00;;;17.60;99.90;;;;;;5595744;23;20043;-96
2023/06/27 06:04:14;;;;;;;1.90;0.80;;;17.80;99.90;;;;;;4954381;29;20083;-96
2023/06/27 06:06:43;;;;;;;2.20;0.77;;;18.10;99.90;;;;;;4936022;29;20107;-96
2023/06/27 06:09:09;;;;;;;4.78;1.30;;;18.10;99.90;;;;;;4944432;29;20023;-96
2023/06/27 06:12:13;;;;;;;2.90;0.90;;;18.30;99.90;;;;;;4929548;29;20116;-96
2023/06/27 06:14:58;;;;;;;2.17;0.80;;;19.00;99.90;;;;;;4947011;29;20035;-96
2023/06/27 06:27:47;;;;;;;1.30;0.57;;;20.50;99.90;;;;;;4939337;29;20059;-96
2023/06/27 06:30:13;;;;;;;2.92;0.82;;;20.20;99.90;;;;;;4924046;29;20126;-96
2023/06/27 06:32:39;;;;;;;3.35;0.70;;;19.90;99.90;;;;;;4911025;29;20048;-96
2023/06/27 06:35:06;;;;;;;2.65;0.90;;;19.60;99.90;;;;;;4924097;29;20044;-96
2023/06/27 06:37:32;;;;;;;3.70;1.00;;;19.10;99.90;;;;;;4927012;29;20035;-96
2023/06/27 06:40:01;;;;;;;4.57;0.88;;;19.20;99.90;;;;;;4923307;29;20479;-96
2023/06/27 06:42:26;;;;;;;3.30;0.60;;;19.10;99.90;;;;;;4924112;29;20399;-96
2023/06/27 06:45:00;;;;;;;2.88;0.70;;;19.10;99.90;;;;;;4922583;29;20043;-96
2023/06/27 06:47:27;;;;;;;4.75;1.05;;;19.00;99.90;;;;;;4930349;29;20044;-96
2023/06/27 06:49:53;;;;;;;2.70;0.80;;;19.00;99.90;;;;;;4925474;29;20531;-96
2023/06/27 06:52:20;;;;;;;4.47;0.67;;;19.00;99.90;;;;;;4929396;29;20125;-96
2023/06/27 06:54:47;;;;;;;2.78;0.80;;;19.30;99.90;;;;;;4928100;29;20064;-96
2023/06/27 06:57:12;;;;;;;1.55;0.57;;;20.20;99.90;;;;;;4927371;29;20450;-96
2023/06/27 06:59:41;;;;;;;2.17;0.70;;;21.30;99.90;;;;;;4938105;29;20384;-96
2023/06/27 07:02:07;;;;;;;1.95;0.50;;;22.40;99.90;;;;;;4921115;29;20054;-96
2023/06/27 07:04:33;;;;;;;2.65;0.57;;;23.10;99.90;;;;;;4897390;29;20551;-96
2023/06/27 07:07:04;;;;;;;1.23;0.50;;;23.70;99.90;;;;;;4912354;29;20050;-96
2023/06/27 07:09:30;;;;;;;4.10;1.05;;;24.10;99.90;;;;;;4914050;29;20028;-96
2023/06/27 07:12:04;;;;;;;1.70;0.65;;;24.30;99.90;;;;;;4947253;29;20043;-96
2023/06/27 07:14:32;;;;;;;2.70;0.75;;;24.70;99.90;;;;;;4919436;29;20049;-96
2023/06/27 08:19:15;;;;;;;2.45;0.50;;;22.00;99.90;;;;;;4901440;29;20090;-96
2023/06/27 09:43:13;;;;;;;3.25;0.38;;;21.60;99.90;;;;;;5697163;23;20530;-96
2023/06/27 09:55:27;;;;;;;1.05;0.40;;;21.20;99.90;;;;;;4759483;23;20306;-94
2023/06/27 09:58:24;;;;;;;2.60;0.60;;;21.20;99.90;;;;;;4927633;29;20055;-96
2023/06/27 10:01:45;;;;;;;1.90;0.47;;;21.50;99.90;;;;;;5145277;23;20059;-96
2023/06/27 11:12:19;;;;;;;5.22;0.63;;;20.70;99.90;;;;;;5016672;23;20462;-96
2023/06/27 11:14:53;;;;;;;3.15;0.55;;;20.70;99.90;;;;;;4941183;29;20066;-96
2023/06/27 11:25:20;;;;;;;1.15;0.40;;;21.00;99.90;;;;;;5302971;23;20070;-96
2023/06/27 11:28:47;;;;;;;1.52;0.50;;;21.00;99.90;;;;;;4958211;29;20133;-96
2023/06/27 11:31:18;;;;;;;1.02;0.45;;;21.00;99.90;;;;;;4935389;29;20087;-96
2023/06/27 11:34:35;;;;;;;1.27;0.47;;;20.90;99.90;;;;;;4942130;29;20087;-96
2023/06/27 12:46:22;;;;;;;2.83;0.70;;;20.90;99.90;;;;;;5018338;23;20032;31
2023/06/27 12:49:13;;;;;;;2.63;0.60;;;20.90;99.90;;;;;;4940181;29;20480;-96
2023/06/27 12:52:24;;;;;;;3.53;0.52;;;20.90;99.80;;;;;;4932001;29;20048;-96
2023/06/27 12:55:21;;;;;;;0.88;0.32;;;20.90;99.40;;;;;;4915395;29;20063;-96
2023/06/27 13:04:44;;;;;;;1.60;0.50;;;20.80;99.20;;;;;;4936243;29;20055;-96
2023/06/27 13:07:53;;;;;;;;;;;;;;;;;;;;;
2023/06/27 13:10:38;;;;;;;1.80;0.40;;;20.70;98.60;;;;;;4929168;29;20036;-96
2023/06/27 13:13:20;;;;;;;1.75;0.40;;;20.60;98.60;;;;;;4908705;29;20036;-96
2023/06/27 13:16:10;;;;;;;4.90;0.50;;;20.60;98.50;;;;;;4910425;29;20135;-96
2023/06/27 13:18:59;;;;;;;1.52;0.40;;;20.50;96.40;;;;;;4924893;29;20063;-96
2023/06/27 13:22:20;;;;;;;4.05;0.68;;;20.70;98.20;;;;;;4849730;29;20049;-96
2023/06/27 13:25:15;;;;;;;4.82;0.50;;;20.70;97.90;;;;;;4877031;29;20104;-96
2023/06/27 13:27:41;;;;;;;3.92;0.40;;;20.70;97.80;;;;;;4840987;29;20041;-96
2023/06/27 13:30:10;;;;;;;1.40;0.40;;;20.70;98.80;;;;;;4879249;29;20053;-96
2023/06/27 13:33:35;;;;;;;0.93;0.30;;;20.90;98.50;;;;;;4849943;29;20037;-96
2023/06/27 13:36:05;;;;;;;4.70;0.50;;;20.90;97.90;;;;;;4867840;29;20053;-96
2023/06/27 13:38:35;;;;;;;3.90;0.70;;;20.90;99.10;;;;;;4866357;29;20201;-96
2023/06/27 13:43:42;;;;;;;3.30;0.50;;;20.90;99.90;;;;;;5080134;23;20001;-96
2023/06/27 13:46:39;;;;;;;1.83;0.40;;;20.90;99.90;;;;;;4940992;28;20050;-96
2023/06/27 13:49:09;;;;;;;3.10;0.80;;;20.80;99.90;;;;;;4951796;29;20047;-96
2023/06/27 13:51:42;;;;;;;1.85;0.50;;;20.90;99.90;;;;;;4946903;29;20339;-96
2023/06/27 13:54:11;;;;;;;1.92;0.50;;;20.90;99.90;;;;;;4940593;29;20039;-96
2023/06/27 13:56:37;;;;;;;1.63;0.57;;;20.70;99.90;;;;;;4936244;28;20223;-96
2023/06/27 13:59:15;;;;;;;1.40;0.40;;;20.70;99.90;;;;;;4936270;29;20096;-96
2023/06/27 14:02:19;;;;;;;1.10;0.40;;;20.70;99.90;;;;;;4941614;29;20071;-96
2023/06/27 14:05:14;;;;;;;2.92;0.60;;;20.50;99.90;;;;;;4938803;29;20040;-96
2023/06/27 14:07:52;;;;;;;1.80;0.63;;;20.50;99.90;;;;;;4939836;29;20042;-96
2023/06/27 14:10:38;;;;;;;3.45;0.45;;;20.60;99.90;;;;;;4903894;29;20056;-96
2023/06/27 14:13:07;;;;;;;1.88;0.50;;;20.60;99.40;;;;;;4884206;29;20109;-96
2023/06/27 14:16:30;;;;;;;0.52;0.20;;;20.60;99.00;;;;;;4882749;29;20049;-96
2023/06/27 14:19:06;;;;;;;2.85;0.60;;;20.60;99.40;;;;;;4888321;29;20044;-96
2023/06/27 14:21:36;;;;;;;1.85;0.47;;;20.60;99.90;;;;;;4868964;29;20112;-96
2023/06/27 14:24:20;;;;;;;2.33;0.60;;;20.70;99.00;;;;;;4890926;29;20052;-96
2023/06/27 14:26:52;;;;;;;2.10;0.60;;;20.70;99.60;;;;;;4884120;29;20087;-96
2023/06/27 14:29:31;;;;;;;3.20;0.70;;;20.70;99.90;;;;;;4831364;29;20143;-96
2023/06/27 14:32:16;;;;;;;1.55;0.35;;;20.90;99.90;;;;;;4843370;29;20057;-96
2023/06/27 14:35:21;;;;;;;1.92;0.55;;;20.60;99.90;;;;;;4862861;29;20631;-96
2023/06/27 14:38:14;;;;;;;2.40;0.50;;;20.70;99.00;;;;;;4838239;29;20072;-96
2023/06/27 14:40:47;;;;;;;1.83;0.40;;;20.60;98.80;;;;;;4861554;29;20037;-96
2023/06/27 14:43:51;;;;;;;2.67;0.50;;;20.30;99.80;;;;;;4901683;29;20094;-96
2023/06/27 14:46:17;;;;;;;2.05;0.50;;;20.40;99.60;;;;;;4883995;29;20151;-96
2023/06/27 14:49:06;;;;;;;1.70;0.40;;;20.40;99.90;;;;;;4882425;29;20615;-96
2023/06/27 14:51:38;;;;;;;2.22;0.50;;;20.40;99.70;;;;;;4838454;29;20525;-96
2023/06/27 14:54:55;;;;;;;2.55;0.60;;;20.30;99.90;;;;;;4860442;29;20107;-96
2023/06/27 14:57:28;;;;;;;2.17;0.55;;;20.30;99.90;;;;;;4843280;29;20080;-96
2023/06/27 15:00:18;;;;;;;2.05;0.60;;;20.30;99.90;;;;;;4886234;29;20041;-96
2023/06/27 15:02:50;;;;;;;1.30;0.40;;;20.30;99.90;;;;;;4879127;29;20096;-96
2023/06/27 15:05:51;;;;;;;1.58;0.50;;;20.30;99.90;;;;;;4815013;29;20122;-96
2023/06/27 15:08:54;;;;;;;2.95;0.55;;;20.10;99.90;;;;;;4885895;29;20132;-96
2023/06/27 15:11:44;;;;;;;1.70;0.52;;;20.20;99.90;;;;;;4886990;29;20462;-96
2023/06/27 15:14:50;;;;;;;3.47;0.60;;;20.10;99.70;;;;;;4908328;29;20044;-96
2023/06/27 15:17:21;;;;;;;2.33;0.50;;;20.10;99.90;;;;;;4871490;29;20049;-96
2023/06/27 15:19:53;;;;;;;2.03;0.52;;;20.10;99.90;;;;;;4867607;29;20045;-96
2023/06/27 15:23:01;;;;;;;4.00;0.60;;;20.10;99.90;;;;;;4906858;28;20131;-96
2023/06/27 15:29:46;;;;;;;2.45;0.50;;;19.90;99.90;;;;;;4810540;29;20062;-96
2023/06/27 15:32:57;;;;;;;;;;;;;;;;;;;;;
2023/06/27 15:35:36;;;;;;;2.33;0.70;;;19.90;99.20;;;;;;4905216;29;20043;-96
2023/06/27 15:38:34;;;;;;;0.95;0.40;;;19.80;99.90;;;;;;4940699;29;20047;-96
2023/06/27 15:41:11;;;;;;;2.83;0.50;;;19.80;99.90;;;;;;4934577;29;20034;-96
2023/06/27 15:43:37;;;;;;;2.20;0.40;;;19.70;99.90;;;;;;4914997;29;20178;-96
2023/06/27 15:46:12;;;;;;;1.20;0.47;;;19.70;99.80;;;;;;4937881;29;20039;-96
2023/06/27 15:48:49;;;;;;;;;;;;;;;;;;;;;
2023/06/27 15:51:25;;;;;;;0.88;0.40;;;19.20;99.20;;;;;;4952062;28;20133;-96
2023/06/27 15:53:53;;;;;;;1.38;0.50;;;19.60;99.70;;;;;;4932867;29;20101;-96
2023/06/27 15:56:28;;;;;;;1.58;0.55;;;19.60;99.00;;;;;;4934635;29;20050;-96
2023/06/27 15:58:54;;;;;;;2.25;0.60;;;19.80;99.40;;;;;;4936840;29;20103;-96
2023/06/27 16:02:03;;;;;;;1.85;0.57;;;19.50;98.90;;;;;;4938528;29;20071;-96
2023/06/27 16:04:43;;;;;;;2.15;0.50;;;19.50;99.70;;;;;;4951724;28;20058;-96
2023/06/27 16:07:27;;;;;;;1.88;0.40;;;19.50;99.40;;;;;;4945243;29;20047;-96
2023/06/27 16:10:08;;;;;;;1.63;0.65;;;19.50;99.80;;;;;;4947378;29;20047;-96
2023/06/27 16:12:40;;;;;;;1.27;0.50;;;19.40;99.90;;;;;;4912865;28;20070;-96
2023/06/27 16:15:06;;;;;;;2.67;0.50;;;19.30;99.90;;;;;;4928016;29;20036;-96
2023/06/27 16:17:33;;;;;;;3.50;0.68;;;19.30;99.90;;;;;;4903903;28;20043;-96
2023/06/27 16:19:59;;;;;;;;;;;19.30;99.90;;;;;;4961325;23;20063;-96
2023/06/27 16:22:29;;;;;;;3.88;0.60;;;19.20;99.90;;;;;;4932212;29;19958;-96
2023/06/27 16:24:59;;;;;;;2.33;0.50;;;19.10;99.90;;;;;;4932530;29;20048;-96
2023/06/27 16:27:31;;;;;;;1.33;0.50;;;19.10;99.90;;;;;;4917544;29;20043;-96
2023/06/27 16:30:02;;;;;;;5.75;0.90;;;18.90;99.90;;;;;;4929469;29;20043;-96
2023/06/27 16:35:14;;;;;;;3.70;0.70;;;18.90;99.90;;;;;;5024213;23;20051;-96
2023/06/27 16:37:51;;;;;;;2.92;0.68;;;18.90;99.90;;;;;;4936013;29;20043;-96
2023/06/27 16:46:02;;;;;;;2.45;0.70;;;18.80;99.90;;;;;;5140297;23;20058;-96
2023/06/27 16:49:15;;;;;;;2.10;0.55;;;18.80;99.90;;;;;;4903828;28;20050;-96
2023/06/27 16:51:48;;;;;;;3.75;0.77;;;18.80;99.90;;;;;;4962908;23;20139;-96
2023/06/27 16:54:18;;;;;;;2.10;0.70;;;18.70;99.90;;;;;;4911864;29;20115;-96
2023/06/27 16:59:21;;;;;;;1.17;0.65;;;18.60;99.90;;;;;;4962131;23;20133;-96
2023/06/27 17:01:58;;;;;;;2.40;0.40;;;18.50;99.90;;;;;;4938817;29;20027;-96
2023/06/27 17:04:28;;;;;;;3.05;0.93;;;18.50;99.90;;;;;;4937201;29;20065;-96
2023/06/27 17:17:31;;;;;;;3.17;0.80;;;18.30;99.90;;;;;;5249236;23;20035;-96
2023/06/27 17:20:44;;;;;;;3.40;1.00;;;17.90;99.90;;;;;;4946858;29;20075;-96
2023/06/27 17:23:10;;;;;;;2.75;0.68;;;18.30;99.90;;;;;;4926437;29;20043;-94
2023/06/27 17:25:36;;;;;;;2.35;0.93;;;18.20;99.90;;;;;;4899470;29;20753;-96
2023/06/27 17:28:02;;;;;;;3.40;0.52;;;18.20;99.90;;;;;;4918035;29;20035;-96
2023/06/27 17:30:28;;;;;;;2.97;0.70;;;18.20;99.90;;;;;;4910257;29;20055;-95
2023/06/27 17:32:54;;;;;;;2.67;1.02;;;18.20;99.90;;;;;;4916126;29;20081;-94
2023/06/27 17:35:20;;;;;;;4.30;0.70;;;18.10;99.90;;;;;;4925322;29;20079;-94
2023/06/27 17:37:46;;;;;;;3.05;0.90;;;18.20;99.90;;;;;;4908125;29;20071;-94
2023/06/27 17:40:12;;;;;;;2.17;0.60;;;18.10;99.90;;;;;;4907958;29;20593;-96
2023/06/27 17:42:38;;;;;;;2.70;0.83;;;18.10;99.90;;;;;;4917775;29;20079;-96
2023/06/27 17:45:05;;;;;;;4.28;0.98;;;18.10;99.90;;;;;;4914902;29;20048;-94
2023/06/27 17:47:32;;;;;;;2.35;0.68;;;18.00;99.90;;;;;;4935010;29;20038;-93
2023/06/27 17:49:58;;;;;;;2.17;0.93;;;18.10;99.90;;;;;;4929514;29;20070;-91
2023/06/27 17:52:24;;;;;;;2.28;0.80;;;18.10;99.90;;;;;;4910670;29;20051;-93
2023/06/27 17:54:49;;;;;;;3.35;1.15;;;18.10;99.90;;;;;;4930272;29;20031;-93
2023/06/27 17:57:15;;;;;;;4.18;1.30;;;18.00;99.90;;;;;;4906099;29;20109;-93
2023/06/27 17:59:41;;;;;;;4.75;1.08;;;18.00;99.90;;;;;;4891183;29;20075;-93
2023/06/27 18:02:07;;;;;;;4.18;0.80;;;18.00;99.90;;;;;;4888991;29;20536;-93
2023/06/27 18:04:32;;;;;;;3.13;0.80;;;18.00;99.90;;;;;;4902487;29;20382;-93
2023/06/27 18:06:58;;;;;;;4.28;0.88;;;18.00;99.90;;;;;;4880907;29;20048;-92
2023/06/27 18:09:24;;;;;;;4.30;1.08;;;18.00;99.90;;;;;;4902520;29;20043;-93
2023/06/27 18:11:50;;;;;;;5.75;1.00;;;18.00;99.90;;;;;;4891695;29;20051;-92
2023/06/27 18:14:15;;;;;;;4.80;1.00;;;17.90;99.90;;;;;;4891644;29;20145;-93
2023/06/27 18:16:41;;;;;;;3.45;0.93;;;17.90;99.90;;;;;;4886199;29;20058;-92
2023/06/27 18:19:07;;;;;;;3.30;0.70;;;17.80;99.90;;;;;;4898764;29;20095;-83
2023/06/27 18:21:33;;;;;;;1.58;0.68;;;17.80;99.90;;;;;;4899106;29;20054;-82
2023/06/27 18:23:59;;;;;;;2.20;0.70;;;17.70;99.90;;;;;;4874197;29;20198;-83
2023/06/27 18:26:25;;;;;;;4.22;0.95;;;17.70;99.90;;;;;;4897674;29;20044;-83
2023/06/27 18:28:51;;;;;;;2.53;0.73;;;17.80;99.90;;;;;;4881373;29;20047;-83
2023/06/27 18:31:16;;;;;;;4.60;1.00;;;17.70;99.90;;;;;;4896584;29;20077;-83
2023/06/27 18:33:42;;;;;;;3.08;0.93;;;17.70;99.90;;;;;;4900240;29;20586;-83
2023/06/27 18:36:08;;;;;;;4.18;0.98;;;17.60;99.90;;;;;;4878348;29;20047;-82
2023/06/27 18:38:36;;;;;;;3.35;0.90;;;17.60;99.90;;;;;;4876866;29;20032;-83
2023/06/27 18:41:02;;;;;;;3.05;0.68;;;17.50;99.90;;;;;;4897398;29;20048;-83
2023/06/27 18:43:27;;;;;;;2.97;0.98;;;17.50;99.90;;;;;;4898589;29;20054;-83
2023/06/27 18:45:54;;;;;;;3.00;0.80;;;17.50;99.90;;;;;;4909274;29;20492;-83
2023/06/27 18:48:20;;;;;;;4.30;1.20;;;17.50;99.90;;;;;;4902933;29;20048;-82
2023/06/27 18:50:46;;;;;;;3.63;0.88;;;17.40;99.90;;;;;;4898615;29;20051;-82
2023/06/27 18:53:12;;;;;;;3.55;1.00;;;17.40;99.90;;;;;;4919629;29;20156;-82
2023/06/27 18:55:37;;;;;;;5.68;0.90;;;17.30;99.90;;;;;;4913780;29;20042;-82
2023/06/27 18:58:04;;;;;;;4.10;1.42;;;17.30;99.90;;;;;;4930724;29;20028;-82
2023/06/27 19:00:29;;;;;;;4.28;1.08;;;17.30;99.90;;;;;;4879057;29;20035;-82
2023/06/27 19:02:55;;;;;;;4.13;1.10;;;17.30;99.90;;;;;;4904300;29;20102;-82
2023/06/27 19:05:21;;;;;;;2.85;1.00;;;17.20;99.90;;;;;;4872072;29;20043;-83
2023/06/27 19:07:46;;;;;;;4.40;1.30;;;17.10;99.90;;;;;;4888762;29;20036;-83
2023/06/27 19:10:13;;;;;;;4.78;1.13;;;17.10;99.90;;;;;;4890052;29;20044;-83
2023/06/27 19:12:47;;;;;;;4.97;1.30;;;17.10;99.90;;;;;;4902918;29;20040;-95
2023/06/27 19:15:29;;;;;;;3.20;0.70;;;17.50;99.90;;;;;;4911648;29;20198;-94
2023/06/27 19:22:59;;;;;;;;;;;;;;;;;;;;;
2023/06/27 19:26:15;;;;;;;7.35;1.42;;;16.90;99.90;;;;;;4931788;29;20047;-93
2023/06/27 19:29:59;;;;;;;;;;;;;;;;;;;;;
2023/06/27 19:33:30;;;;;;;2.38;0.85;;;16.70;99.90;;;;;;4813250;29;20068;-92
2023/06/27 19:36:55;;;;;;;;;;;;;;;;;;;;;
2023/06/27 19:43:51;;;;;;;3.05;1.00;;;16.60;99.90;;;;;;4838997;29;20054;-94
2023/06/27 19:46:31;;;;;;;3.63;1.02;;;16.50;99.90;;;;;;4873840;29;20052;-94
2023/06/27 19:49:52;;;;;;;4.43;1.42;;;16.20;99.90;;;;;;4877104;29;20103;-93
2023/06/27 20:04:40;;;;;;;3.67;0.82;;;16.40;99.90;;;;;;4834583;29;20037;-93
2023/06/27 20:07:21;;;;;;;2.53;1.20;;;16.20;99.90;;;;;;4881645;29;20143;-93
2023/06/27 20:10:27;;;;;;;3.45;1.33;;;16.30;99.90;;;;;;4913415;29;20043;-92
2023/06/27 20:13:06;;;;;;;2.58;1.17;;;16.30;99.90;;;;;;4907009;29;20043;-94
2023/06/27 20:15:49;;;;;;;5.32;1.63;;;16.30;99.90;;;;;;4915336;29;20047;-93
2023/06/27 20:18:28;;;;;;;2.00;1.08;;;16.30;99.90;;;;;;4909758;28;20092;-94
2023/06/27 20:21:08;;;;;;;4.20;1.58;;;16.30;99.90;;;;;;4903756;29;20334;-93
2023/06/27 20:23:37;;;;;;;4.57;1.63;;;16.20;99.90;;;;;;4904082;29;20130;-93
2023/06/27 20:26:07;;;;;;;5.25;2.03;;;16.20;99.90;;;;;;4912715;29;20043;-94
2023/06/27 20:28:36;;;;;;;5.72;1.60;;;16.20;99.90;;;;;;4876163;29;20290;-94
2023/06/27 20:31:06;;;;;;;6.65;1.33;;;16.00;99.90;;;;;;4896205;29;20050;-93
2023/06/27 20:33:31;;;;;;;1.65;0.90;;;16.20;99.90;;;;;;4914192;29;20047;-93
2023/06/27 20:35:57;;;;;;;2.78;1.00;;;16.10;99.90;;;;;;4909296;29;20091;-92
2023/06/27 20:38:23;;;;;;;3.38;1.45;;;16.20;99.90;;;;;;4916567;29;20076;-92
2023/06/27 20:40:49;;;;;;;3.60;1.00;;;16.10;99.90;;;;;;4889680;29;20027;-93
2023/06/27 20:43:15;;;;;;;4.18;1.30;;;16.10;99.90;;;;;;4913446;29;20079;-93
2023/06/27 20:45:41;;;;;;;3.47;0.98;;;16.20;99.90;;;;;;4908090;29;20124;-92
2023/06/27 20:48:07;;;;;;;3.72;1.33;;;16.20;99.90;;;;;;4904184;29;20040;-94
2023/06/27 20:50:32;;;;;;;3.22;1.20;;;16.20;99.90;;;;;;4885052;29;20035;-94
2023/06/27 20:53:04;;;;;;;2.60;1.30;;;16.10;99.90;;;;;;4884825;29;20044;-93
2023/06/27 20:55:30;;;;;;;4.38;1.52;;;16.10;99.90;;;;;;4907492;29;20039;-93
2023/06/27 20:58:05;;;;;;;3.83;1.20;;;16.10;99.90;;;;;;4905683;29;20040;-93
2023/06/27 21:00:31;;;;;;;3.20;1.27;;;16.00;99.90;;;;;;4918325;29;20046;-93
2023/06/27 21:03:00;;;;;;;3.28;1.17;;;15.90;99.90;;;;;;4917079;29;20679;-93
2023/06/27 21:05:26;;;;;;;3.45;1.27;;;15.90;99.90;;;;;;4910843;29;20496;-92
2023/06/27 21:07:52;;;;;;;5.40;1.30;;;15.80;99.90;;;;;;4909107;29;20110;-93
2023/06/27 21:10:18;;;;;;;2.90;1.08;;;15.80;99.90;;;;;;4906057;29;20062;-93
2023/06/27 21:12:43;;;;;;;2.65;1.40;;;15.80;99.90;;;;;;4915443;29;20570;-93
2023/06/27 21:15:12;;;;;;;5.90;1.40;;;15.80;99.90;;;;;;4920511;29;20039;-93
2023/06/27 21:17:38;;;;;;;2.65;1.00;;;15.90;99.90;;;;;;4931039;29;20056;-92
2023/06/27 21:20:05;;;;;;;4.85;1.50;;;15.90;99.90;;;;;;4908347;29;20040;-92
2023/06/27 21:22:31;;;;;;;2.15;0.93;;;15.80;99.90;;;;;;4910961;29;20055;-93
2023/06/27 21:24:57;;;;;;;3.78;1.42;;;15.80;99.90;;;;;;4910828;29;20506;-92
2023/06/27 21:27:26;;;;;;;4.93;1.23;;;15.80;99.90;;;;;;4904826;29;20127;-92
2023/06/27 21:29:52;;;;;;;4.40;1.30;;;15.80;99.90;;;;;;4892455;29;20043;-93
2023/06/27 21:32:18;;;;;;;4.13;1.65;;;15.80;99.90;;;;;;4897501;29;20048;-93
2023/06/27 21:34:44;;;;;;;6.00;1.40;;;15.80;99.90;;;;;;4907276;29;20107;-95
2023/06/27 21:37:10;;;;;;;6.80;2.35;;;15.80;99.90;;;;;;4887851;29;20131;-95
2023/06/27 21:39:36;;;;;;;3.80;1.27;;;15.80;99.90;;;;;;4902327;29;20110;-96
2023/06/27 21:42:02;;;;;;;3.63;1.60;;;15.70;99.90;;;;;;4913190;29;20040;-94